sensor_id;sensor_type;location;lat;lon;timestamp;temperature;humidity
2174;DHT22;1093;51.424;11.764;2022-11-24T00:00:29;2.20;1.40
2174;DHT22;1093;51.424;11.764;2022-11-24T00:02:56;2.20;1.40
2174;DHT22;1093;51.424;11.764;2022-11-24T00:05:23;2.20;1.40
2174;DHT22;1093;51.424;11.764;2022-11-24T00:07:51;2.20;1.40
2174;DHT22;1093;51.424;11.764;2022-11-24T00:10:18;2.20;1.40
2174;DHT22;1093;51.424;11.764;2022-11-24T00:12:45;2.20;1.40
2174;DHT22;1093;51.424;11.764;2022-11-24T00:15:12;2.10;1.40
2174;DHT22;1093;51.424;11.764;2022-11-24T00:17:38;2.10;1.40
2174;DHT22;1093;51.424;11.764;2022-11-24T00:20:06;2.10;1.40
2174;DHT22;1093;51.424;11.764;2022-11-24T00:22:33;2.10;1.40
2174;DHT22;1093;51.424;11.764;2022-11-24T00:25:01;2.10;1.40
2174;DHT22;1093;51.424;11.764;2022-11-24T00:27:28;2.10;1.40
2174;DHT22;1093;51.424;11.764;2022-11-24T00:29:55;2.10;1.40
2174;DHT22;1093;51.424;11.764;2022-11-24T00:32:22;2.10;1.40
2174;DHT22;1093;51.424;11.764;2022-11-24T00:34:49;2.10;1.40
2174;DHT22;1093;51.424;11.764;2022-11-24T00:37:15;2.10;1.40
2174;DHT22;1093;51.424;11.764;2022-11-24T00:39:42;2.10;1.40
2174;DHT22;1093;51.424;11.764;2022-11-24T00:42:10;2.10;1.40
2174;DHT22;1093;51.424;11.764;2022-11-24T00:44:38;2.00;1.40
2174;DHT22;1093;51.424;11.764;2022-11-24T00:47:05;2.00;1.40
2174;DHT22;1093;51.424;11.764;2022-11-24T00:49:32;2.00;1.40
2174;DHT22;1093;51.424;11.764;2022-11-24T00:52:00;2.00;1.40
2174;DHT22;1093;51.424;11.764;2022-11-24T00:54:27;2.00;1.40
2174;DHT22;1093;51.424;11.764;2022-11-24T00:56:54;2.00;1.40
2174;DHT22;1093;51.424;11.764;2022-11-24T00:59:22;2.00;1.40
2174;DHT22;1093;51.424;11.764;2022-11-24T01:01:49;2.00;1.40
2174;DHT22;1093;51.424;11.764;2022-11-24T01:04:16;2.00;1.40
2174;DHT22;1093;51.424;11.764;2022-11-24T01:06:43;2.00;1.40
2174;DHT22;1093;51.424;11.764;2022-11-24T01:09:09;2.10;1.40
2174;DHT22;1093;51.424;11.764;2022-11-24T01:11:36;2.10;1.40
2174;DHT22;1093;51.424;11.764;2022-11-24T01:14:18;2.10;1.40
2174;DHT22;1093;51.424;11.764;2022-11-24T01:16:46;2.10;1.40
2174;DHT22;1093;51.424;11.764;2022-11-24T01:19:14;2.20;1.40
2174;DHT22;1093;51.424;11.764;2022-11-24T01:21:41;2.20;1.40
2174;DHT22;1093;51.424;11.764;2022-11-24T01:24:08;2.30;1.40
2174;DHT22;1093;51.424;11.764;2022-11-24T01:26:35;2.30;1.40
2174;DHT22;1093;51.424;11.764;2022-11-24T01:29:02;2.30;1.40
2174;DHT22;1093;51.424;11.764;2022-11-24T01:31:29;2.30;1.40
2174;DHT22;1093;51.424;11.764;2022-11-24T01:33:58;2.30;1.40
2174;DHT22;1093;51.424;11.764;2022-11-24T01:36:25;2.40;1.40
2174;DHT22;1093;51.424;11.764;2022-11-24T01:38:52;2.40;1.40
2174;DHT22;1093;51.424;11.764;2022-11-24T01:41:21;2.40;1.40
2174;DHT22;1093;51.424;11.764;2022-11-24T01:43:49;2.50;1.40
2174;DHT22;1093;51.424;11.764;2022-11-24T01:46:19;2.50;1.40
2174;DHT22;1093;51.424;11.764;2022-11-24T01:48:52;2.60;1.40
2174;DHT22;1093;51.424;11.764;2022-11-24T01:51:25;2.60;1.40
2174;DHT22;1093;51.424;11.764;2022-11-24T01:53:56;2.60;1.40
2174;DHT22;1093;51.424;11.764;2022-11-24T01:56:24;2.70;1.40
2174;DHT22;1093;51.424;11.764;2022-11-24T01:58:54;2.70;1.40
2174;DHT22;1093;51.424;11.764;2022-11-24T02:01:22;2.70;1.40
2174;DHT22;1093;51.424;11.764;2022-11-24T02:03:50;2.70;1.40
2174;DHT22;1093;51.424;11.764;2022-11-24T02:06:21;2.70;1.40
2174;DHT22;1093;51.424;11.764;2022-11-24T02:08:55;2.80;1.40
2174;DHT22;1093;51.424;11.764;2022-11-24T02:11:25;2.80;1.40
2174;DHT22;1093;51.424;11.764;2022-11-24T02:13:54;2.80;1.40
2174;DHT22;1093;51.424;11.764;2022-11-24T02:16:21;2.80;1.40
2174;DHT22;1093;51.424;11.764;2022-11-24T02:18:48;2.80;1.40
2174;DHT22;1093;51.424;11.764;2022-11-24T02:21:15;2.80;1.40
2174;DHT22;1093;51.424;11.764;2022-11-24T02:23:48;2.80;1.40
2174;DHT22;1093;51.424;11.764;2022-11-24T02:26:29;2.90;1.40
2174;DHT22;1093;51.424;11.764;2022-11-24T02:28:56;2.80;1.40
2174;DHT22;1093;51.424;11.764;2022-11-24T02:31:23;2.80;1.40
2174;DHT22;1093;51.424;11.764;2022-11-24T02:33:50;2.80;1.40
2174;DHT22;1093;51.424;11.764;2022-11-24T02:36:17;2.80;1.40
2174;DHT22;1093;51.424;11.764;2022-11-24T02:38:44;2.80;1.40
2174;DHT22;1093;51.424;11.764;2022-11-24T02:41:13;2.80;1.40
2174;DHT22;1093;51.424;11.764;2022-11-24T02:43:46;2.80;1.40
2174;DHT22;1093;51.424;11.764;2022-11-24T02:46:14;2.80;1.40
2174;DHT22;1093;51.424;11.764;2022-11-24T02:48:41;2.90;1.40
2174;DHT22;1093;51.424;11.764;2022-11-24T02:51:08;2.90;1.40
2174;DHT22;1093;51.424;11.764;2022-11-24T02:53:35;3.00;1.40
2174;DHT22;1093;51.424;11.764;2022-11-24T02:56:02;3.00;1.40
2174;DHT22;1093;51.424;11.764;2022-11-24T02:58:29;3.10;1.40
2174;DHT22;1093;51.424;11.764;2022-11-24T03:00:57;3.20;1.40
2174;DHT22;1093;51.424;11.764;2022-11-24T03:03:25;3.30;1.40
2174;DHT22;1093;51.424;11.764;2022-11-24T03:05:52;3.30;1.40
2174;DHT22;1093;51.424;11.764;2022-11-24T03:08:19;3.40;1.40
2174;DHT22;1093;51.424;11.764;2022-11-24T03:10:46;3.40;1.40
2174;DHT22;1093;51.424;11.764;2022-11-24T03:13:13;3.40;1.40
2174;DHT22;1093;51.424;11.764;2022-11-24T03:15:40;3.40;1.40
2174;DHT22;1093;51.424;11.764;2022-11-24T03:18:08;3.40;1.40
2174;DHT22;1093;51.424;11.764;2022-11-24T03:20:35;3.40;1.40
2174;DHT22;1093;51.424;11.764;2022-11-24T03:23:02;3.50;1.40
2174;DHT22;1093;51.424;11.764;2022-11-24T03:25:29;3.50;1.40
2174;DHT22;1093;51.424;11.764;2022-11-24T03:27:56;3.50;1.40
2174;DHT22;1093;51.424;11.764;2022-11-24T03:30:23;3.60;1.40
2174;DHT22;1093;51.424;11.764;2022-11-24T03:32:51;3.50;1.40
2174;DHT22;1093;51.424;11.764;2022-11-24T03:35:20;3.50;1.40
2174;DHT22;1093;51.424;11.764;2022-11-24T03:37:47;3.60;1.40
2174;DHT22;1093;51.424;11.764;2022-11-24T03:40:14;3.60;1.40
2174;DHT22;1093;51.424;11.764;2022-11-24T03:42:42;3.60;1.40
2174;DHT22;1093;51.424;11.764;2022-11-24T03:45:09;3.60;1.40
2174;DHT22;1093;51.424;11.764;2022-11-24T03:47:36;3.70;1.40
2174;DHT22;1093;51.424;11.764;2022-11-24T03:50:03;3.70;1.40
2174;DHT22;1093;51.424;11.764;2022-11-24T03:52:32;3.70;1.40
2174;DHT22;1093;51.424;11.764;2022-11-24T03:54:59;3.80;1.40
2174;DHT22;1093;51.424;11.764;2022-11-24T03:57:26;3.80;1.40
2174;DHT22;1093;51.424;11.764;2022-11-24T03:59:53;3.80;1.40
2174;DHT22;1093;51.424;11.764;2022-11-24T04:02:20;3.90;1.40
2174;DHT22;1093;51.424;11.764;2022-11-24T04:04:46;3.90;1.40
2174;DHT22;1093;51.424;11.764;2022-11-24T04:07:15;3.90;1.40
2174;DHT22;1093;51.424;11.764;2022-11-24T04:09:44;4.00;1.40
2174;DHT22;1093;51.424;11.764;2022-11-24T04:12:11;4.00;1.40
2174;DHT22;1093;51.424;11.764;2022-11-24T04:14:55;4.00;1.40
2174;DHT22;1093;51.424;11.764;2022-11-24T04:17:22;4.00;1.40
2174;DHT22;1093;51.424;11.764;2022-11-24T04:19:49;4.10;1.40
2174;DHT22;1093;51.424;11.764;2022-11-24T04:22:15;4.10;1.40
2174;DHT22;1093;51.424;11.764;2022-11-24T04:24:44;4.10;1.40
2174;DHT22;1093;51.424;11.764;2022-11-24T04:27:10;4.20;1.40
2174;DHT22;1093;51.424;11.764;2022-11-24T04:29:37;4.20;1.40
2174;DHT22;1093;51.424;11.764;2022-11-24T04:32:04;4.30;1.40
2174;DHT22;1093;51.424;11.764;2022-11-24T04:36:58;4.30;1.40
2174;DHT22;1093;51.424;11.764;2022-11-24T04:39:25;4.40;1.40
2174;DHT22;1093;51.424;11.764;2022-11-24T04:41:54;4.50;1.40
2174;DHT22;1093;51.424;11.764;2022-11-24T04:44:21;4.50;1.40
2174;DHT22;1093;51.424;11.764;2022-11-24T04:46:48;4.40;1.40
2174;DHT22;1093;51.424;11.764;2022-11-24T04:49:15;4.40;1.40
2174;DHT22;1093;51.424;11.764;2022-11-24T04:51:42;4.40;1.40
2174;DHT22;1093;51.424;11.764;2022-11-24T04:54:10;4.40;1.40
2174;DHT22;1093;51.424;11.764;2022-11-24T04:56:37;4.30;1.40
2174;DHT22;1093;51.424;11.764;2022-11-24T04:59:05;4.30;1.40
2174;DHT22;1093;51.424;11.764;2022-11-24T05:01:32;4.30;1.40
2174;DHT22;1093;51.424;11.764;2022-11-24T05:03:59;4.30;1.40
2174;DHT22;1093;51.424;11.764;2022-11-24T05:06:26;4.30;1.40
2174;DHT22;1093;51.424;11.764;2022-11-24T05:08:53;4.30;1.40
2174;DHT22;1093;51.424;11.764;2022-11-24T05:11:19;4.30;1.40
2174;DHT22;1093;51.424;11.764;2022-11-24T05:13:46;4.40;1.40
2174;DHT22;1093;51.424;11.764;2022-11-24T05:16:14;4.40;1.40
2174;DHT22;1093;51.424;11.764;2022-11-24T05:18:41;4.50;1.40
2174;DHT22;1093;51.424;11.764;2022-11-24T05:21:09;4.50;1.40
2174;DHT22;1093;51.424;11.764;2022-11-24T05:23:36;4.60;1.40
2174;DHT22;1093;51.424;11.764;2022-11-24T05:26:04;4.70;1.40
2174;DHT22;1093;51.424;11.764;2022-11-24T05:28:32;4.70;1.40
2174;DHT22;1093;51.424;11.764;2022-11-24T05:30:59;4.70;1.40
2174;DHT22;1093;51.424;11.764;2022-11-24T05:33:28;4.70;1.40
2174;DHT22;1093;51.424;11.764;2022-11-24T05:35:59;4.70;1.40
2174;DHT22;1093;51.424;11.764;2022-11-24T05:38:27;4.80;1.40
2174;DHT22;1093;51.424;11.764;2022-11-24T05:40:59;4.70;1.40
2174;DHT22;1093;51.424;11.764;2022-11-24T05:43:26;4.80;1.40
2174;DHT22;1093;51.424;11.764;2022-11-24T05:45:53;4.80;1.40
2174;DHT22;1093;51.424;11.764;2022-11-24T05:48:20;4.70;1.40
2174;DHT22;1093;51.424;11.764;2022-11-24T05:50:53;4.70;1.40
2174;DHT22;1093;51.424;11.764;2022-11-24T05:53:21;4.70;1.40
2174;DHT22;1093;51.424;11.764;2022-11-24T05:55:48;4.70;1.40
2174;DHT22;1093;51.424;11.764;2022-11-24T05:58:15;4.70;1.40
2174;DHT22;1093;51.424;11.764;2022-11-24T06:00:42;4.70;1.40
2174;DHT22;1093;51.424;11.764;2022-11-24T06:03:09;4.60;1.40
2174;DHT22;1093;51.424;11.764;2022-11-24T06:05:37;4.70;1.40
2174;DHT22;1093;51.424;11.764;2022-11-24T06:08:05;4.60;1.40
2174;DHT22;1093;51.424;11.764;2022-11-24T06:10:32;4.60;1.40
2174;DHT22;1093;51.424;11.764;2022-11-24T06:13:03;4.60;1.40
2174;DHT22;1093;51.424;11.764;2022-11-24T06:15:30;4.60;1.40
2174;DHT22;1093;51.424;11.764;2022-11-24T06:17:57;4.60;1.40
2174;DHT22;1093;51.424;11.764;2022-11-24T06:20:24;4.50;1.40
2174;DHT22;1093;51.424;11.764;2022-11-24T06:22:51;4.50;1.40
2174;DHT22;1093;51.424;11.764;2022-11-24T06:25:20;4.50;1.40
2174;DHT22;1093;51.424;11.764;2022-11-24T06:27:46;4.50;1.40
2174;DHT22;1093;51.424;11.764;2022-11-24T06:30:14;4.50;1.40
2174;DHT22;1093;51.424;11.764;2022-11-24T06:32:41;4.50;1.40
2174;DHT22;1093;51.424;11.764;2022-11-24T06:35:10;4.50;1.40
2174;DHT22;1093;51.424;11.764;2022-11-24T06:37:37;4.50;1.40
2174;DHT22;1093;51.424;11.764;2022-11-24T06:40:05;4.60;1.40
2174;DHT22;1093;51.424;11.764;2022-11-24T06:42:35;4.60;1.40
2174;DHT22;1093;51.424;11.764;2022-11-24T06:45:02;4.60;1.40
2174;DHT22;1093;51.424;11.764;2022-11-24T06:47:29;4.50;1.40
2174;DHT22;1093;51.424;11.764;2022-11-24T06:49:56;4.50;1.40
2174;DHT22;1093;51.424;11.764;2022-11-24T06:52:23;4.50;1.40
2174;DHT22;1093;51.424;11.764;2022-11-24T06:54:50;4.50;1.40
2174;DHT22;1093;51.424;11.764;2022-11-24T06:57:18;4.50;1.40
2174;DHT22;1093;51.424;11.764;2022-11-24T06:59:47;4.50;1.40
2174;DHT22;1093;51.424;11.764;2022-11-24T07:02:13;4.50;1.40
2174;DHT22;1093;51.424;11.764;2022-11-24T07:04:40;4.50;1.40
2174;DHT22;1093;51.424;11.764;2022-11-24T07:07:07;4.50;1.40
2174;DHT22;1093;51.424;11.764;2022-11-24T07:09:34;4.40;1.40
2174;DHT22;1093;51.424;11.764;2022-11-24T07:12:01;4.50;1.40
2174;DHT22;1093;51.424;11.764;2022-11-24T07:14:28;4.70;1.40
2174;DHT22;1093;51.424;11.764;2022-11-24T07:16:56;4.60;1.40
2174;DHT22;1093;51.424;11.764;2022-11-24T07:19:23;4.70;1.40
2174;DHT22;1093;51.424;11.764;2022-11-24T07:21:49;4.70;1.40
2174;DHT22;1093;51.424;11.764;2022-11-24T07:24:16;4.70;1.40
2174;DHT22;1093;51.424;11.764;2022-11-24T07:26:43;4.70;1.40
2174;DHT22;1093;51.424;11.764;2022-11-24T07:29:10;4.70;1.40
2174;DHT22;1093;51.424;11.764;2022-11-24T07:31:37;4.70;1.40
2174;DHT22;1093;51.424;11.764;2022-11-24T07:34:05;4.60;1.40
2174;DHT22;1093;51.424;11.764;2022-11-24T07:36:32;4.70;1.40
2174;DHT22;1093;51.424;11.764;2022-11-24T07:38:59;4.60;1.40
2174;DHT22;1093;51.424;11.764;2022-11-24T07:41:26;4.60;1.40
2174;DHT22;1093;51.424;11.764;2022-11-24T07:43:52;4.70;1.40
2174;DHT22;1093;51.424;11.764;2022-11-24T07:46:19;4.70;1.40
2174;DHT22;1093;51.424;11.764;2022-11-24T07:48:46;4.80;1.40
2174;DHT22;1093;51.424;11.764;2022-11-24T07:51:15;4.80;1.40
2174;DHT22;1093;51.424;11.764;2022-11-24T07:53:41;4.80;1.40
2174;DHT22;1093;51.424;11.764;2022-11-24T07:56:08;4.80;1.40
2174;DHT22;1093;51.424;11.764;2022-11-24T07:58:36;4.90;1.40
2174;DHT22;1093;51.424;11.764;2022-11-24T08:01:11;4.80;1.40
2174;DHT22;1093;51.424;11.764;2022-11-24T08:03:38;4.90;1.40
2174;DHT22;1093;51.424;11.764;2022-11-24T08:06:05;4.90;1.40
2174;DHT22;1093;51.424;11.764;2022-11-24T08:08:34;4.90;1.40
2174;DHT22;1093;51.424;11.764;2022-11-24T08:11:05;5.00;1.40
2174;DHT22;1093;51.424;11.764;2022-11-24T08:13:33;5.10;1.40
2174;DHT22;1093;51.424;11.764;2022-11-24T08:16:03;5.10;1.40
2174;DHT22;1093;51.424;11.764;2022-11-24T08:18:31;5.20;1.40
2174;DHT22;1093;51.424;11.764;2022-11-24T08:20:58;5.30;1.40
2174;DHT22;1093;51.424;11.764;2022-11-24T08:23:25;5.30;1.40
2174;DHT22;1093;51.424;11.764;2022-11-24T08:25:53;5.30;1.40
2174;DHT22;1093;51.424;11.764;2022-11-24T08:28:22;5.40;1.40
2174;DHT22;1093;51.424;11.764;2022-11-24T08:30:48;5.40;1.40
2174;DHT22;1093;51.424;11.764;2022-11-24T08:33:16;5.50;1.40
2174;DHT22;1093;51.424;11.764;2022-11-24T08:35:43;5.50;1.40
2174;DHT22;1093;51.424;11.764;2022-11-24T08:38:10;5.60;1.40
2174;DHT22;1093;51.424;11.764;2022-11-24T08:40:36;5.70;1.40
2174;DHT22;1093;51.424;11.764;2022-11-24T08:43:05;5.70;1.40
2174;DHT22;1093;51.424;11.764;2022-11-24T08:45:31;5.80;1.40
2174;DHT22;1093;51.424;11.764;2022-11-24T08:47:58;5.90;1.40
2174;DHT22;1093;51.424;11.764;2022-11-24T08:50:25;6.00;1.40
2174;DHT22;1093;51.424;11.764;2022-11-24T08:52:52;6.00;1.40
2174;DHT22;1093;51.424;11.764;2022-11-24T08:55:19;6.10;1.40
2174;DHT22;1093;51.424;11.764;2022-11-24T08:57:46;6.20;1.40
2174;DHT22;1093;51.424;11.764;2022-11-24T09:00:15;6.20;1.40
2174;DHT22;1093;51.424;11.764;2022-11-24T09:02:53;6.40;1.40
2174;DHT22;1093;51.424;11.764;2022-11-24T09:05:20;6.40;1.40
2174;DHT22;1093;51.424;11.764;2022-11-24T09:07:46;6.50;1.40
2174;DHT22;1093;51.424;11.764;2022-11-24T09:10:13;6.60;1.40
2174;DHT22;1093;51.424;11.764;2022-11-24T09:12:43;6.60;1.40
2174;DHT22;1093;51.424;11.764;2022-11-24T09:15:10;6.70;1.40
2174;DHT22;1093;51.424;11.764;2022-11-24T09:17:38;6.80;1.40
2174;DHT22;1093;51.424;11.764;2022-11-24T09:20:05;6.80;1.40
2174;DHT22;1093;51.424;11.764;2022-11-24T09:22:32;6.90;1.40
2174;DHT22;1093;51.424;11.764;2022-11-24T09:24:59;6.90;1.40
2174;DHT22;1093;51.424;11.764;2022-11-24T09:27:26;6.90;1.40
2174;DHT22;1093;51.424;11.764;2022-11-24T09:29:53;6.90;1.40
2174;DHT22;1093;51.424;11.764;2022-11-24T09:32:20;7.00;1.40
2174;DHT22;1093;51.424;11.764;2022-11-24T09:34:48;7.10;1.40
2174;DHT22;1093;51.424;11.764;2022-11-24T09:37:15;7.10;1.40
2174;DHT22;1093;51.424;11.764;2022-11-24T09:39:42;7.20;1.40
2174;DHT22;1093;51.424;11.764;2022-11-24T09:42:13;7.20;1.40
2174;DHT22;1093;51.424;11.764;2022-11-24T09:45:13;7.20;1.40
2174;DHT22;1093;51.424;11.764;2022-11-24T09:47:51;7.30;1.40
2174;DHT22;1093;51.424;11.764;2022-11-24T09:50:23;7.30;1.40
2174;DHT22;1093;51.424;11.764;2022-11-24T09:52:53;7.40;1.40
2174;DHT22;1093;51.424;11.764;2022-11-24T09:55:30;7.40;1.40
2174;DHT22;1093;51.424;11.764;2022-11-24T09:58:06;7.50;1.40
2174;DHT22;1093;51.424;11.764;2022-11-24T10:00:35;7.60;1.40
2174;DHT22;1093;51.424;11.764;2022-11-24T10:03:02;7.70;1.40
2174;DHT22;1093;51.424;11.764;2022-11-24T10:05:33;7.80;1.40
2174;DHT22;1093;51.424;11.764;2022-11-24T10:08:11;8.00;1.40
2174;DHT22;1093;51.424;11.764;2022-11-24T10:10:46;8.00;1.40
2174;DHT22;1093;51.424;11.764;2022-11-24T10:13:29;8.10;1.40
2174;DHT22;1093;51.424;11.764;2022-11-24T10:16:09;8.20;1.40
2174;DHT22;1093;51.424;11.764;2022-11-24T10:18:47;8.30;1.40
2174;DHT22;1093;51.424;11.764;2022-11-24T10:24:32;8.40;1.40
2174;DHT22;1093;51.424;11.764;2022-11-24T10:27:02;8.40;1.40
2174;DHT22;1093;51.424;11.764;2022-11-24T10:29:32;8.60;1.40
2174;DHT22;1093;51.424;11.764;2022-11-24T10:32:06;8.70;1.40
2174;DHT22;1093;51.424;11.764;2022-11-24T10:34:40;8.80;1.40
2174;DHT22;1093;51.424;11.764;2022-11-24T10:37:14;8.90;1.40
2174;DHT22;1093;51.424;11.764;2022-11-24T10:39:50;9.00;1.40
2174;DHT22;1093;51.424;11.764;2022-11-24T10:42:22;9.00;1.40
2174;DHT22;1093;51.424;11.764;2022-11-24T10:44:58;9.10;1.40
2174;DHT22;1093;51.424;11.764;2022-11-24T10:47:26;9.10;1.40
2174;DHT22;1093;51.424;11.764;2022-11-24T10:49:57;9.20;1.40
2174;DHT22;1093;51.424;11.764;2022-11-24T10:52:28;9.40;1.40
2174;DHT22;1093;51.424;11.764;2022-11-24T10:54:56;9.40;1.40
2174;DHT22;1093;51.424;11.764;2022-11-24T10:57:30;9.50;1.40
2174;DHT22;1093;51.424;11.764;2022-11-24T10:59:57;9.60;1.40
2174;DHT22;1093;51.424;11.764;2022-11-24T11:02:34;9.60;1.40
2174;DHT22;1093;51.424;11.764;2022-11-24T11:05:35;9.70;1.40
2174;DHT22;1093;51.424;11.764;2022-11-24T11:08:20;9.80;1.40
2174;DHT22;1093;51.424;11.764;2022-11-24T11:10:48;9.80;1.40
2174;DHT22;1093;51.424;11.764;2022-11-24T11:13:23;9.80;1.40
2174;DHT22;1093;51.424;11.764;2022-11-24T11:15:50;9.90;1.40
2174;DHT22;1093;51.424;11.764;2022-11-24T11:18:18;9.90;1.40
2174;DHT22;1093;51.424;11.764;2022-11-24T11:20:52;9.90;1.40
2174;DHT22;1093;51.424;11.764;2022-11-24T11:23:26;10.00;1.40
2174;DHT22;1093;51.424;11.764;2022-11-24T11:26:21;10.00;1.40
2174;DHT22;1093;51.424;11.764;2022-11-24T11:29:01;10.00;1.40
2174;DHT22;1093;51.424;11.764;2022-11-24T11:31:30;10.10;1.40
2174;DHT22;1093;51.424;11.764;2022-11-24T11:34:01;10.20;1.40
2174;DHT22;1093;51.424;11.764;2022-11-24T11:36:40;10.20;1.40
2174;DHT22;1093;51.424;11.764;2022-11-24T11:39:21;10.30;1.40
2174;DHT22;1093;51.424;11.764;2022-11-24T11:41:51;10.30;1.40
2174;DHT22;1093;51.424;11.764;2022-11-24T11:44:29;10.30;1.40
2174;DHT22;1093;51.424;11.764;2022-11-24T11:46:58;10.40;1.40
2174;DHT22;1093;51.424;11.764;2022-11-24T11:49:26;10.40;1.40
2174;DHT22;1093;51.424;11.764;2022-11-24T11:52:07;10.40;1.40
2174;DHT22;1093;51.424;11.764;2022-11-24T11:55:02;10.40;1.40
2174;DHT22;1093;51.424;11.764;2022-11-24T11:57:39;10.40;1.40
2174;DHT22;1093;51.424;11.764;2022-11-24T12:00:12;10.40;1.40
2174;DHT22;1093;51.424;11.764;2022-11-24T12:05:58;10.30;1.40
2174;DHT22;1093;51.424;11.764;2022-11-24T12:08:36;10.30;1.40
2174;DHT22;1093;51.424;11.764;2022-11-24T12:11:10;10.30;1.40
2174;DHT22;1093;51.424;11.764;2022-11-24T12:14:00;10.30;1.40
2174;DHT22;1093;51.424;11.764;2022-11-24T12:16:38;10.30;1.40
2174;DHT22;1093;51.424;11.764;2022-11-24T12:19:18;10.30;1.40
2174;DHT22;1093;51.424;11.764;2022-11-24T12:21:56;10.30;1.40
2174;DHT22;1093;51.424;11.764;2022-11-24T12:24:34;10.40;1.40
2174;DHT22;1093;51.424;11.764;2022-11-24T12:27:09;10.40;1.40
2174;DHT22;1093;51.424;11.764;2022-11-24T12:32:59;10.30;1.40
2174;DHT22;1093;51.424;11.764;2022-11-24T12:35:34;10.30;1.40
2174;DHT22;1093;51.424;11.764;2022-11-24T12:38:16;10.30;1.40
2174;DHT22;1093;51.424;11.764;2022-11-24T12:41:06;10.30;1.40
2174;DHT22;1093;51.424;11.764;2022-11-24T12:43:38;10.30;1.40
2174;DHT22;1093;51.424;11.764;2022-11-24T12:46:09;10.30;1.40
2174;DHT22;1093;51.424;11.764;2022-11-24T12:48:51;10.30;1.40
2174;DHT22;1093;51.424;11.764;2022-11-24T12:51:21;10.20;1.40
2174;DHT22;1093;51.424;11.764;2022-11-24T12:53:51;10.20;1.40
2174;DHT22;1093;51.424;11.764;2022-11-24T12:56:28;10.30;1.40
2174;DHT22;1093;51.424;11.764;2022-11-24T12:59:07;10.20;1.40
2174;DHT22;1093;51.424;11.764;2022-11-24T13:01:42;10.20;1.40
2174;DHT22;1093;51.424;11.764;2022-11-24T13:04:21;10.20;1.40
2174;DHT22;1093;51.424;11.764;2022-11-24T13:06:58;10.10;1.40
2174;DHT22;1093;51.424;11.764;2022-11-24T13:09:25;10.10;1.40
2174;DHT22;1093;51.424;11.764;2022-11-24T13:11:53;10.00;1.40
2174;DHT22;1093;51.424;11.764;2022-11-24T13:14:23;10.00;1.40
2174;DHT22;1093;51.424;11.764;2022-11-24T13:16:56;10.00;1.40
2174;DHT22;1093;51.424;11.764;2022-11-24T13:19:24;10.00;1.40
2174;DHT22;1093;51.424;11.764;2022-11-24T13:22:09;10.00;1.40
2174;DHT22;1093;51.424;11.764;2022-11-24T13:24:39;10.00;1.40
2174;DHT22;1093;51.424;11.764;2022-11-24T13:27:38;10.00;1.40
2174;DHT22;1093;51.424;11.764;2022-11-24T13:33:34;10.00;1.40
2174;DHT22;1093;51.424;11.764;2022-11-24T13:36:29;10.00;1.40
2174;DHT22;1093;51.424;11.764;2022-11-24T13:38:56;10.00;1.40
2174;DHT22;1093;51.424;11.764;2022-11-24T13:44:46;10.00;1.40
2174;DHT22;1093;51.424;11.764;2022-11-24T13:47:36;9.90;1.40
2174;DHT22;1093;51.424;11.764;2022-11-24T13:50:19;9.90;1.40
2174;DHT22;1093;51.424;11.764;2022-11-24T13:52:49;9.90;1.40
2174;DHT22;1093;51.424;11.764;2022-11-24T13:55:26;9.90;1.40
2174;DHT22;1093;51.424;11.764;2022-11-24T13:57:57;9.90;1.40
2174;DHT22;1093;51.424;11.764;2022-11-24T14:00:27;9.90;1.40
2174;DHT22;1093;51.424;11.764;2022-11-24T14:02:59;9.90;1.40
2174;DHT22;1093;51.424;11.764;2022-11-24T14:05:34;9.90;1.40
2174;DHT22;1093;51.424;11.764;2022-11-24T14:08:04;9.90;1.40
2174;DHT22;1093;51.424;11.764;2022-11-24T14:10:33;9.90;1.40
2174;DHT22;1093;51.424;11.764;2022-11-24T14:13:23;9.90;1.40
2174;DHT22;1093;51.424;11.764;2022-11-24T14:16:02;9.90;1.40
2174;DHT22;1093;51.424;11.764;2022-11-24T14:18:30;9.90;1.40
2174;DHT22;1093;51.424;11.764;2022-11-24T14:21:00;9.90;1.40
2174;DHT22;1093;51.424;11.764;2022-11-24T14:23:27;9.90;1.40
2174;DHT22;1093;51.424;11.764;2022-11-24T14:25:53;9.90;1.40
2174;DHT22;1093;51.424;11.764;2022-11-24T14:28:22;9.80;1.40
2174;DHT22;1093;51.424;11.764;2022-11-24T14:30:50;9.80;1.40
2174;DHT22;1093;51.424;11.764;2022-11-24T14:33:18;9.80;1.40
2174;DHT22;1093;51.424;11.764;2022-11-24T14:35:50;9.80;1.40
2174;DHT22;1093;51.424;11.764;2022-11-24T14:38:19;9.80;1.40
2174;DHT22;1093;51.424;11.764;2022-11-24T14:40:48;9.70;1.40
2174;DHT22;1093;51.424;11.764;2022-11-24T14:43:19;9.70;1.40
2174;DHT22;1093;51.424;11.764;2022-11-24T14:45:49;9.70;1.40
2174;DHT22;1093;51.424;11.764;2022-11-24T14:48:17;9.60;1.40
2174;DHT22;1093;51.424;11.764;2022-11-24T14:50:46;9.70;1.40
2174;DHT22;1093;51.424;11.764;2022-11-24T14:53:15;9.70;1.40
2174;DHT22;1093;51.424;11.764;2022-11-24T14:56:05;9.70;1.40
2174;DHT22;1093;51.424;11.764;2022-11-24T14:58:34;9.60;1.40
2174;DHT22;1093;51.424;11.764;2022-11-24T15:01:09;9.60;1.40
2174;DHT22;1093;51.424;11.764;2022-11-24T15:03:36;9.50;1.40
2174;DHT22;1093;51.424;11.764;2022-11-24T15:06:04;9.50;1.40
2174;DHT22;1093;51.424;11.764;2022-11-24T15:08:36;9.50;1.40
2174;DHT22;1093;51.424;11.764;2022-11-24T15:11:05;9.40;1.40
2174;DHT22;1093;51.424;11.764;2022-11-24T15:13:36;9.40;1.40
2174;DHT22;1093;51.424;11.764;2022-11-24T15:16:05;9.30;1.40
2174;DHT22;1093;51.424;11.764;2022-11-24T15:18:38;9.30;1.40
2174;DHT22;1093;51.424;11.764;2022-11-24T15:21:06;9.30;1.40
2174;DHT22;1093;51.424;11.764;2022-11-24T15:23:34;9.20;1.40
2174;DHT22;1093;51.424;11.764;2022-11-24T15:26:22;9.20;1.40
2174;DHT22;1093;51.424;11.764;2022-11-24T15:28:50;9.20;1.40
2174;DHT22;1093;51.424;11.764;2022-11-24T15:31:17;9.20;1.40
2174;DHT22;1093;51.424;11.764;2022-11-24T15:33:44;9.10;1.40
2174;DHT22;1093;51.424;11.764;2022-11-24T15:36:10;9.10;1.40
2174;DHT22;1093;51.424;11.764;2022-11-24T15:38:39;9.10;1.40
2174;DHT22;1093;51.424;11.764;2022-11-24T15:41:17;9.00;1.40
2174;DHT22;1093;51.424;11.764;2022-11-24T15:43:50;9.00;1.40
2174;DHT22;1093;51.424;11.764;2022-11-24T15:46:23;8.90;1.40
2174;DHT22;1093;51.424;11.764;2022-11-24T15:48:50;8.90;1.40
2174;DHT22;1093;51.424;11.764;2022-11-24T15:51:18;8.90;1.40
2174;DHT22;1093;51.424;11.764;2022-11-24T15:53:47;8.80;1.40
2174;DHT22;1093;51.424;11.764;2022-11-24T15:56:19;8.80;1.40
2174;DHT22;1093;51.424;11.764;2022-11-24T15:58:49;8.80;1.40
2174;DHT22;1093;51.424;11.764;2022-11-24T16:01:16;8.70;1.40
2174;DHT22;1093;51.424;11.764;2022-11-24T16:03:43;8.70;1.40
2174;DHT22;1093;51.424;11.764;2022-11-24T16:06:12;8.70;1.40
2174;DHT22;1093;51.424;11.764;2022-11-24T16:08:40;8.60;1.40
2174;DHT22;1093;51.424;11.764;2022-11-24T16:11:06;8.60;1.40
2174;DHT22;1093;51.424;11.764;2022-11-24T16:13:33;8.50;1.40
2174;DHT22;1093;51.424;11.764;2022-11-24T16:16:01;8.50;1.40
2174;DHT22;1093;51.424;11.764;2022-11-24T16:18:28;8.50;1.40
2174;DHT22;1093;51.424;11.764;2022-11-24T16:20:56;8.50;1.40
2174;DHT22;1093;51.424;11.764;2022-11-24T16:23:23;8.50;1.40
2174;DHT22;1093;51.424;11.764;2022-11-24T16:25:50;8.50;1.40
2174;DHT22;1093;51.424;11.764;2022-11-24T16:28:17;8.50;1.40
2174;DHT22;1093;51.424;11.764;2022-11-24T16:30:47;8.50;1.40
2174;DHT22;1093;51.424;11.764;2022-11-24T16:33:16;8.40;1.40
2174;DHT22;1093;51.424;11.764;2022-11-24T16:35:45;8.40;1.40
2174;DHT22;1093;51.424;11.764;2022-11-24T16:38:14;8.40;1.40
2174;DHT22;1093;51.424;11.764;2022-11-24T16:40:41;8.40;1.40
2174;DHT22;1093;51.424;11.764;2022-11-24T16:43:09;8.40;1.40
2174;DHT22;1093;51.424;11.764;2022-11-24T16:45:36;8.40;1.40
2174;DHT22;1093;51.424;11.764;2022-11-24T16:48:03;8.40;1.40
2174;DHT22;1093;51.424;11.764;2022-11-24T16:50:31;8.40;1.40
2174;DHT22;1093;51.424;11.764;2022-11-24T16:52:58;8.40;1.40